Time;durP1;ratioP1;P1;durP2;ratioP2;P2;SDS_P1;SDS_P2;PMS_P1;PMS_P2;Temp;Humidity;BMP_temperature;BMP_pressure;BME280_temperature;BME280_humidity;BME280_pressure;Samples;Min_cycle;Max_cycle;Signal;HPM_P1;HPM_P2
2022/11/07 00:02:44;;;;;;;1.02;0.52;;;17.00;53.70;;;;;;20688230;28;20034;-75
2022/11/07 00:12:45;;;;;;;1.67;0.80;;;17.00;53.70;;;;;;20670935;28;20042;-75
2022/11/07 00:22:48;;;;;;;1.20;0.80;;;17.00;53.80;;;;;;20688443;28;20302;-75
2022/11/07 00:32:48;;;;;;;1.38;0.85;;;17.00;53.80;;;;;;20696817;28;20034;-75
2022/11/07 00:42:49;;;;;;;1.55;0.88;;;17.00;53.80;;;;;;20680309;28;20054;-75
2022/11/07 00:52:49;;;;;;;0.70;0.57;;;17.00;53.90;;;;;;20716524;28;20031;-75
2022/11/07 01:13:10;;;;;;;1.25;0.98;;;16.90;53.90;;;;;;20681079;28;20030;-76
2022/11/07 01:23:10;;;;;;;0.70;0.65;;;16.90;54.00;;;;;;20672155;28;20034;-75
2022/11/07 01:33:11;;;;;;;1.48;0.70;;;16.90;54.00;;;;;;20675263;28;20030;-75
2022/11/07 01:43:12;;;;;;;1.55;1.02;;;16.90;54.10;;;;;;20647087;28;20035;-75
2022/11/07 01:53:12;;;;;;;1.40;0.93;;;16.90;54.10;;;;;;20657717;28;20030;-75
2022/11/07 02:03:15;;;;;;;1.08;0.80;;;16.90;54.20;;;;;;20675725;28;20304;-75
2022/11/07 02:13:25;;;;;;;1.02;0.75;;;16.80;54.20;;;;;;20960957;23;20061;-75
2022/11/07 02:23:53;;;;;;;0.68;0.40;;;16.80;54.30;;;;;;20644589;28;20431;-75
2022/11/07 02:33:53;;;;;;;1.00;0.60;;;16.80;54.30;;;;;;20670710;28;20037;-75
2022/11/07 02:44:00;;;;;;;1.15;0.63;;;16.80;54.40;;;;;;20653233;28;20034;-74
2022/11/07 02:54:01;;;;;;;1.38;0.90;;;16.80;54.40;;;;;;20679533;28;20558;-73
2022/11/07 03:04:01;;;;;;;1.10;0.80;;;16.80;54.50;;;;;;20653289;28;20749;-74
2022/11/07 03:14:03;;;;;;;1.20;0.70;;;16.70;54.50;;;;;;20674584;28;20950;-74
2022/11/07 03:24:04;;;;;;;0.88;0.70;;;16.70;54.60;;;;;;20666019;28;20522;-75
2022/11/07 03:34:04;;;;;;;1.63;1.00;;;16.70;54.70;;;;;;20673564;28;20033;-74
2022/11/07 03:44:05;;;;;;;2.60;0.90;;;16.70;54.80;;;;;;20633417;28;20040;-75
2022/11/07 03:54:06;;;;;;;1.30;0.85;;;16.70;54.80;;;;;;20633870;28;20372;-74
2022/11/07 04:04:07;;;;;;;0.80;0.60;;;16.70;54.90;;;;;;20678751;28;20037;-74
2022/11/07 04:24:27;;;;;;;0.75;0.70;;;16.60;54.90;;;;;;20633734;28;20409;-75
2022/11/07 04:34:27;;;;;;;1.63;1.00;;;16.70;55.10;;;;;;20633747;28;20037;-75
2022/11/07 04:44:28;;;;;;;1.48;0.93;;;16.70;55.10;;;;;;20655481;28;20069;-74
2022/11/07 04:54:29;;;;;;;0.63;0.60;;;16.60;55.20;;;;;;20649148;28;20149;-74
2022/11/07 05:04:30;;;;;;;1.52;0.63;;;16.60;55.20;;;;;;20626297;28;20302;-74
2022/11/07 05:14:32;;;;;;;1.30;0.98;;;16.60;55.30;;;;;;20638821;28;20455;-75
2022/11/07 05:24:32;;;;;;;1.53;0.87;;;16.60;55.30;;;;;;20645088;28;20088;-73
2022/11/07 05:34:33;;;;;;;1.17;0.67;;;16.50;55.40;;;;;;20654258;28;20329;-74
2022/11/07 05:44:33;;;;;;;1.63;0.63;;;16.50;55.40;;;;;;20625353;28;20294;-75
2022/11/07 05:54:34;;;;;;;1.03;0.60;;;16.50;55.50;;;;;;20683282;28;20121;-75
2022/11/07 06:04:35;;;;;;;0.90;0.60;;;16.50;55.60;;;;;;20681562;28;20328;-77
2022/11/07 06:14:35;;;;;;;1.20;0.70;;;16.50;55.70;;;;;;20633165;28;20038;-78
2022/11/07 06:24:36;;;;;;;0.50;0.40;;;16.50;55.70;;;;;;20673544;28;20641;-75
2022/11/07 06:34:37;;;;;;;0.70;0.50;;;16.50;55.80;;;;;;20663911;28;20042;-74
2022/11/07 06:44:38;;;;;;;1.55;0.70;;;16.50;55.90;;;;;;20673570;28;20034;-76
2022/11/07 06:54:38;;;;;;;1.05;0.70;;;16.40;55.90;;;;;;20671233;28;20397;-75
2022/11/07 07:04:39;;;;;;;1.50;0.60;;;16.40;56.00;;;;;;20671311;28;20773;-74
2022/11/07 07:14:40;;;;;;;1.33;0.63;;;16.40;56.10;;;;;;20647521;28;20148;-74
2022/11/07 07:24:40;;;;;;;2.28;0.73;;;16.40;56.20;;;;;;20631031;28;20345;-74
2022/11/07 07:34:41;;;;;;;0.63;0.50;;;16.40;56.20;;;;;;20628714;28;20035;-74
2022/11/07 07:44:42;;;;;;;0.82;0.50;;;16.40;56.30;;;;;;20646998;28;20059;-75
2022/11/07 07:54:42;;;;;;;1.27;0.75;;;16.30;56.30;;;;;;20658036;28;20034;-75
2022/11/07 08:04:43;;;;;;;0.82;0.50;;;16.30;56.40;;;;;;20636942;28;20045;-75
2022/11/07 08:14:43;;;;;;;1.27;0.40;;;16.30;56.40;;;;;;20628213;28;20512;-76
2022/11/07 08:24:44;;;;;;;1.30;0.57;;;16.60;56.00;;;;;;20626574;28;20100;-76
2022/11/07 08:34:45;;;;;;;1.38;0.57;;;16.80;55.50;;;;;;20645713;28;20441;-76
2022/11/07 08:44:45;;;;;;;1.00;0.60;;;16.80;56.00;;;;;;20648251;28;20041;-76
2022/11/07 08:54:46;;;;;;;1.23;0.57;;;16.40;56.30;;;;;;20660216;28;20034;-76
2022/11/07 09:04:47;;;;;;;1.75;0.45;;;16.20;57.10;;;;;;20660078;28;20098;-76
2022/11/07 09:14:47;;;;;;;1.25;0.50;;;16.30;57.10;;;;;;20647416;28;20116;-76
2022/11/07 09:24:48;;;;;;;0.87;0.40;;;16.40;56.80;;;;;;20634778;28;20034;-76
2022/11/07 09:34:50;;;;;;;1.00;0.60;;;16.70;56.50;;;;;;20653482;28;20364;-76
2022/11/07 09:44:57;;;;;;;2.20;0.60;;;16.70;56.10;;;;;;20632391;28;20130;-75
2022/11/07 09:55:22;;;;;;;1.73;0.80;;;16.80;56.00;;;;;;20635005;28;20392;-75
2022/11/07 10:05:36;;;;;;;0.90;0.50;;;16.90;55.80;;;;;;20638337;28;20117;-76
2022/11/07 10:16:03;;;;;;;1.38;0.50;;;16.90;55.60;;;;;;20621547;28;20365;-75
2022/11/07 10:26:07;;;;;;;0.52;0.38;;;17.00;55.50;;;;;;20662138;28;20034;-76
2022/11/07 10:36:24;;;;;;;0.68;0.50;;;17.10;55.40;;;;;;20630099;28;20073;-74
2022/11/07 10:46:43;;;;;;;1.58;0.70;;;17.10;55.20;;;;;;20621390;28;20065;-75
2022/11/07 10:56:46;;;;;;;4.50;0.90;;;17.20;55.10;;;;;;20629044;28;20088;-73
2022/11/07 11:06:59;;;;;;;1.58;0.65;;;17.20;55.00;;;;;;20648081;28;20038;-75
2022/11/07 11:17:01;;;;;;;0.90;0.60;;;17.20;55.00;;;;;;20626467;28;20121;-74
2022/11/07 11:27:21;;;;;;;1.92;0.43;;;17.20;55.00;;;;;;20654373;28;20088;-75
2022/11/07 11:37:22;;;;;;;1.00;0.68;;;17.20;55.00;;;;;;20638038;28;20030;-76
2022/11/07 11:47:36;;;;;;;0.98;0.40;;;17.20;55.10;;;;;;20621821;28;20408;-73
2022/11/07 11:57:49;;;;;;;2.40;0.60;;;17.20;55.20;;;;;;20642482;28;20088;-75
2022/11/07 12:08:28;;;;;;;2.75;0.60;;;17.20;55.20;;;;;;20653529;28;20030;-72
2022/11/07 12:18:48;;;;;;;2.28;0.73;;;17.20;55.40;;;;;;20642440;28;20038;-74
2022/11/07 12:28:59;;;;;;;0.82;0.50;;;17.20;55.40;;;;;;20627789;28;20042;-74
2022/11/07 12:39:05;;;;;;;1.02;0.40;;;17.20;55.50;;;;;;20635078;28;20034;-74
2022/11/07 12:49:38;;;;;;;2.65;1.00;;;17.20;55.50;;;;;;20641864;28;20117;-74
2022/11/07 12:59:39;;;;;;;2.33;0.80;;;17.10;55.50;;;;;;20643605;28;20057;-74
2022/11/07 13:09:54;;;;;;;2.40;0.60;;;17.10;55.60;;;;;;20641432;28;20030;-73
2022/11/07 13:19:58;;;;;;;0.87;0.60;;;17.10;55.60;;;;;;20625261;28;20038;-73
2022/11/07 13:30:11;;;;;;;2.38;0.70;;;17.10;55.60;;;;;;20637894;28;20057;-75
2022/11/07 13:40:12;;;;;;;1.40;0.63;;;17.10;55.70;;;;;;20635753;28;20040;-78
2022/11/07 13:50:19;;;;;;;2.50;0.93;;;17.10;55.70;;;;;;20622735;28;20034;-78
2022/11/07 14:00:20;;;;;;;1.55;0.68;;;17.10;55.80;;;;;;20615743;28;20045;-77
2022/11/07 14:10:30;;;;;;;2.75;0.90;;;17.10;55.90;;;;;;20653588;28;20042;-78
2022/11/07 14:20:31;;;;;;;2.85;1.13;;;17.10;56.10;;;;;;20645280;28;20381;-77
2022/11/07 14:30:32;;;;;;;1.33;0.98;;;17.00;56.20;;;;;;20651989;28;20034;-76
2022/11/07 14:40:32;;;;;;;2.80;1.00;;;17.00;56.30;;;;;;20673090;28;20046;-77
2022/11/07 14:50:33;;;;;;;1.58;0.73;;;17.00;56.40;;;;;;20670462;28;20281;-76
2022/11/07 15:00:35;;;;;;;1.02;0.98;;;16.90;56.50;;;;;;20654828;28;20031;-75
2022/11/07 15:10:38;;;;;;;0.93;0.55;;;16.90;56.50;;;;;;20690938;28;20040;-75
2022/11/07 15:20:39;;;;;;;2.45;0.70;;;16.90;56.70;;;;;;20658140;28;20030;-77
2022/11/07 15:30:39;;;;;;;4.65;0.82;;;16.90;56.80;;;;;;20649445;28;20536;-73
2022/11/07 15:40:40;;;;;;;1.90;0.60;;;16.80;56.90;;;;;;20681039;28;20054;-72
2022/11/07 15:50:42;;;;;;;13.52;1.40;;;16.90;57.10;;;;;;20688342;28;20297;-73
2022/11/07 16:00:42;;;;;;;6.55;1.10;;;16.80;57.20;;;;;;20688713;28;20038;-74
2022/11/07 16:10:46;;;;;;;9.75;2.03;;;16.80;57.30;;;;;;20678285;28;20132;-77
2022/11/07 16:20:47;;;;;;;7.75;1.30;;;16.90;57.60;;;;;;20615223;28;20038;-78
2022/11/07 16:30:48;;;;;;;5.20;1.30;;;16.80;57.80;;;;;;20637996;28;20089;-76
2022/11/07 16:40:49;;;;;;;6.55;1.70;;;16.80;57.90;;;;;;20674099;28;20040;-75
2022/11/07 16:50:50;;;;;;;5.93;1.60;;;16.90;58.10;;;;;;20672773;28;20026;-74
2022/11/07 17:00:51;;;;;;;9.00;2.25;;;16.80;58.20;;;;;;20661492;28;20297;-77
2022/11/07 17:10:53;;;;;;;4.13;1.27;;;16.80;58.30;;;;;;20646463;28;20490;-76
2022/11/07 17:20:54;;;;;;;4.20;1.27;;;16.70;58.30;;;;;;20650336;28;20165;-76
2022/11/07 17:30:55;;;;;;;3.47;1.13;;;16.80;58.40;;;;;;20634572;28;20329;-78
2022/11/07 17:41:15;;;;;;;3.65;1.45;;;16.70;59.00;;;;;;20687596;28;20038;-79
2022/11/07 17:51:16;;;;;;;4.03;1.63;;;16.60;58.30;;;;;;20692984;28;20493;-78
2022/11/07 18:01:21;;;;;;;2.70;1.02;;;16.60;58.40;;;;;;20647525;28;20069;-79
2022/11/07 18:11:24;;;;;;;4.20;1.45;;;16.60;58.50;;;;;;20688224;28;20603;-78
2022/11/07 18:21:25;;;;;;;3.65;1.13;;;16.60;58.60;;;;;;20638526;28;20145;-77
2022/11/07 18:31:26;;;;;;;4.75;0.98;;;16.60;58.60;;;;;;20655241;28;20058;-78
2022/11/07 18:41:26;;;;;;;2.17;0.88;;;16.60;58.70;;;;;;20672400;28;20180;-77
2022/11/07 18:51:27;;;;;;;3.78;0.82;;;16.60;58.70;;;;;;20682667;28;20023;-80
2022/11/07 19:01:29;;;;;;;2.78;1.02;;;16.50;58.70;;;;;;20661899;28;20038;-80
2022/11/07 19:11:30;;;;;;;1.42;0.70;;;16.50;58.70;;;;;;20669901;28;20034;-79
2022/11/07 19:21:30;;;;;;;2.42;1.08;;;16.50;59.10;;;;;;20654608;28;20097;-79
2022/11/07 19:31:31;;;;;;;3.95;0.90;;;16.50;58.80;;;;;;20670443;28;20039;-79
2022/11/07 19:41:32;;;;;;;2.67;1.35;;;16.50;58.90;;;;;;20667144;28;20031;-80
2022/11/07 19:51:32;;;;;;;3.30;1.08;;;16.50;58.90;;;;;;20659909;28;20031;-80
2022/11/07 20:01:33;;;;;;;2.93;0.70;;;16.50;59.00;;;;;;20690750;28;20042;-79
2022/11/07 20:11:34;;;;;;;2.92;0.90;;;16.50;59.10;;;;;;20665430;28;20775;-79
2022/11/07 20:21:34;;;;;;;2.95;0.77;;;16.50;59.10;;;;;;20640121;28;20053;-80
2022/11/07 20:31:35;;;;;;;1.63;0.75;;;16.40;59.10;;;;;;20666596;28;20070;-80
2022/11/07 20:41:40;;;;;;;1.63;0.70;;;16.40;59.20;;;;;;20663632;28;20042;-80
2022/11/07 20:51:41;;;;;;;2.63;0.95;;;16.40;59.30;;;;;;20655368;28;20053;-80
2022/11/07 21:01:42;;;;;;;1.60;1.23;;;16.40;60.00;;;;;;20645743;28;20042;-80
2022/11/07 21:11:42;;;;;;;1.17;0.50;;;16.40;59.40;;;;;;20675895;28;20079;-80
2022/11/07 21:21:43;;;;;;;1.23;0.70;;;16.40;59.50;;;;;;20644850;28;20030;-80
2022/11/07 21:31:43;;;;;;;1.00;0.60;;;16.40;59.60;;;;;;20653663;28;20534;-80
2022/11/07 21:41:44;;;;;;;4.20;0.93;;;16.40;59.60;;;;;;20674140;28;20309;-80
2022/11/07 21:51:44;;;;;;;2.87;0.97;;;16.40;59.60;;;;;;20652127;28;20883;-80
2022/11/07 22:01:47;;;;;;;0.90;0.75;;;16.40;59.70;;;;;;20646355;28;20356;-80
2022/11/07 22:11:48;;;;;;;3.75;1.00;;;16.30;59.60;;;;;;20654953;28;20468;-81
2022/11/07 22:21:49;;;;;;;2.20;0.82;;;16.30;59.70;;;;;;20654644;28;20039;-80
2022/11/07 22:31:49;;;;;;;1.83;0.73;;;16.30;59.70;;;;;;20628012;28;20032;-80
2022/11/07 22:41:50;;;;;;;1.40;0.82;;;16.40;59.80;;;;;;20678342;28;20312;-80
2022/11/07 22:51:51;;;;;;;0.98;0.50;;;16.30;59.70;;;;;;20669521;28;20034;-80
2022/11/07 23:01:51;;;;;;;2.63;1.13;;;16.30;59.80;;;;;;20699104;28;20038;-80
2022/11/07 23:11:52;;;;;;;1.08;0.63;;;16.30;60.50;;;;;;20675019;28;20439;-80
2022/11/07 23:21:53;;;;;;;1.85;0.40;;;16.30;59.90;;;;;;20645810;28;20037;-80
2022/11/07 23:31:54;;;;;;;1.58;0.47;;;16.30;59.90;;;;;;20685574;28;20100;-80
2022/11/07 23:41:55;;;;;;;1.55;0.68;;;16.30;59.90;;;;;;20647259;28;20030;-80
2022/11/07 23:51:55;;;;;;;1.30;0.52;;;16.30;60.00;;;;;;20667113;28;20034;-80
